sensor_id;sensor_type;location;lat;lon;timestamp;pressure;altitude;pressure_sealevel;temperature;humidity
78839;BME280;68405;47.190;27.558;2023-12-28T00:01:19;100886.98;;;1.94;60.91
78839;BME280;68405;47.190;27.558;2023-12-28T00:03:51;100886.63;;;1.93;61.11
78839;BME280;68405;47.190;27.558;2023-12-28T00:06:22;100886.45;;;1.93;61.14
78839;BME280;68405;47.190;27.558;2023-12-28T00:08:54;100888.63;;;1.90;60.94
78839;BME280;68405;47.190;27.558;2023-12-28T00:11:25;100890.11;;;1.87;60.76
78839;BME280;68405;47.190;27.558;2023-12-28T00:13:57;100896.02;;;1.82;60.78
78839;BME280;68405;47.190;27.558;2023-12-28T00:16:29;100899.98;;;1.73;60.99
78839;BME280;68405;47.190;27.558;2023-12-28T00:19:02;100902.48;;;1.61;60.67
78839;BME280;68405;47.190;27.558;2023-12-28T00:21:34;100903.48;;;1.50;61.24
78839;BME280;68405;47.190;27.558;2023-12-28T00:24:06;100905.68;;;1.40;60.96
78839;BME280;68405;47.190;27.558;2023-12-28T00:26:38;100900.95;;;1.34;60.83
78839;BME280;68405;47.190;27.558;2023-12-28T00:29:09;100897.30;;;1.31;60.83
78839;BME280;68405;47.190;27.558;2023-12-28T00:31:41;100900.00;;;1.38;61.44
78839;BME280;68405;47.190;27.558;2023-12-28T00:34:13;100904.67;;;1.49;61.73
78839;BME280;68405;47.190;27.558;2023-12-28T00:36:44;100903.94;;;1.56;61.18
78839;BME280;68405;47.190;27.558;2023-12-28T00:39:15;100906.61;;;1.61;61.78
78839;BME280;68405;47.190;27.558;2023-12-28T00:41:47;100912.54;;;1.67;62.25
78839;BME280;68405;47.190;27.558;2023-12-28T00:44:18;100912.61;;;1.71;62.07
78839;BME280;68405;47.190;27.558;2023-12-28T00:46:50;100911.10;;;1.73;61.79
78839;BME280;68405;47.190;27.558;2023-12-28T00:49:22;100903.40;;;1.73;62.09
78839;BME280;68405;47.190;27.558;2023-12-28T00:51:54;100902.58;;;1.74;61.97
78839;BME280;68405;47.190;27.558;2023-12-28T00:54:27;100906.02;;;1.75;62.29
78839;BME280;68405;47.190;27.558;2023-12-28T00:56:59;100903.59;;;1.74;62.46
78839;BME280;68405;47.190;27.558;2023-12-28T00:59:30;100903.71;;;1.72;62.11
78839;BME280;68405;47.190;27.558;2023-12-28T01:02:02;100906.30;;;1.73;62.19
78839;BME280;68405;47.190;27.558;2023-12-28T01:04:34;100908.39;;;1.74;62.16
78839;BME280;68405;47.190;27.558;2023-12-28T01:07:05;100901.52;;;1.73;62.47
78839;BME280;68405;47.190;27.558;2023-12-28T01:09:37;100900.79;;;1.70;62.43
78839;BME280;68405;47.190;27.558;2023-12-28T01:12:09;100892.88;;;1.69;62.12
78839;BME280;68405;47.190;27.558;2023-12-28T01:14:41;100894.39;;;1.67;62.45
78839;BME280;68405;47.190;27.558;2023-12-28T01:17:13;100887.47;;;1.64;62.53
78839;BME280;68405;47.190;27.558;2023-12-28T01:19:44;100888.28;;;1.60;62.70
78839;BME280;68405;47.190;27.558;2023-12-28T01:22:16;100879.80;;;1.55;62.76
78839;BME280;68405;47.190;27.558;2023-12-28T01:24:49;100879.92;;;1.53;63.26
78839;BME280;68405;47.190;27.558;2023-12-28T01:27:20;100872.87;;;1.51;63.92
78839;BME280;68405;47.190;27.558;2023-12-28T01:29:52;100868.85;;;1.48;63.80
78839;BME280;68405;47.190;27.558;2023-12-28T01:32:23;100864.69;;;1.44;63.74
78839;BME280;68405;47.190;27.558;2023-12-28T01:34:55;100867.21;;;1.42;63.57
78839;BME280;68405;47.190;27.558;2023-12-28T01:37:26;100865.85;;;1.42;63.61
78839;BME280;68405;47.190;27.558;2023-12-28T01:40:01;100863.27;;;1.42;63.51
78839;BME280;68405;47.190;27.558;2023-12-28T01:42:32;100850.15;;;1.45;63.61
78839;BME280;68405;47.190;27.558;2023-12-28T01:45:06;100837.52;;;1.47;63.73
78839;BME280;68405;47.190;27.558;2023-12-28T01:47:38;100841.16;;;1.49;63.60
78839;BME280;68405;47.190;27.558;2023-12-28T01:50:11;100844.79;;;1.51;63.63
78839;BME280;68405;47.190;27.558;2023-12-28T01:52:43;100842.42;;;1.53;63.78
78839;BME280;68405;47.190;27.558;2023-12-28T01:55:15;100847.05;;;1.53;63.41
78839;BME280;68405;47.190;27.558;2023-12-28T01:57:48;100843.61;;;1.52;63.26
78839;BME280;68405;47.190;27.558;2023-12-28T02:00:22;100847.23;;;1.54;63.28
78839;BME280;68405;47.190;27.558;2023-12-28T02:02:53;100847.08;;;1.55;62.99
78839;BME280;68405;47.190;27.558;2023-12-28T02:05:27;100841.63;;;1.55;63.09
78839;BME280;68405;47.190;27.558;2023-12-28T02:08:01;100837.70;;;1.56;63.42
78839;BME280;68405;47.190;27.558;2023-12-28T02:10:32;100835.95;;;1.55;63.31
78839;BME280;68405;47.190;27.558;2023-12-28T02:13:05;100835.91;;;1.52;63.55
78839;BME280;68405;47.190;27.558;2023-12-28T02:15:36;100836.86;;;1.49;63.50
78839;BME280;68405;47.190;27.558;2023-12-28T02:18:14;100837.72;;;1.48;63.28
78839;BME280;68405;47.190;27.558;2023-12-28T02:20:49;100841.11;;;1.47;63.12
78839;BME280;68405;47.190;27.558;2023-12-28T02:23:21;100836.95;;;1.43;63.37
78839;BME280;68405;47.190;27.558;2023-12-28T02:25:53;100837.96;;;1.43;62.95
78839;BME280;68405;47.190;27.558;2023-12-28T02:28:24;100836.04;;;1.40;63.05
78839;BME280;68405;47.190;27.558;2023-12-28T02:30:57;100834.05;;;1.35;63.00
78839;BME280;68405;47.190;27.558;2023-12-28T02:33:32;100836.04;;;1.31;63.36
78839;BME280;68405;47.190;27.558;2023-12-28T02:36:07;100841.91;;;1.25;63.13
78839;BME280;68405;47.190;27.558;2023-12-28T02:38:38;100837.65;;;1.17;63.61
78839;BME280;68405;47.190;27.558;2023-12-28T02:41:11;100841.88;;;1.06;66.45
78839;BME280;68405;47.190;27.558;2023-12-28T02:43:43;100842.94;;;0.99;64.82
78839;BME280;68405;47.190;27.558;2023-12-28T02:46:15;100848.14;;;0.94;64.11
78839;BME280;68405;47.190;27.558;2023-12-28T02:48:47;100851.98;;;0.89;63.60
78839;BME280;68405;47.190;27.558;2023-12-28T02:51:18;100859.39;;;0.83;63.41
78839;BME280;68405;47.190;27.558;2023-12-28T02:53:50;100865.10;;;0.78;63.59
78839;BME280;68405;47.190;27.558;2023-12-28T02:56:21;100869.34;;;0.77;63.45
78839;BME280;68405;47.190;27.558;2023-12-28T02:58:53;100860.61;;;0.77;63.69
78839;BME280;68405;47.190;27.558;2023-12-28T03:01:24;100858.67;;;0.74;63.70
78839;BME280;68405;47.190;27.558;2023-12-28T03:03:56;100847.45;;;0.69;63.59
78839;BME280;68405;47.190;27.558;2023-12-28T03:06:28;100846.83;;;0.64;64.14
78839;BME280;68405;47.190;27.558;2023-12-28T03:09:00;100846.38;;;0.59;64.47
78839;BME280;68405;47.190;27.558;2023-12-28T03:11:31;100846.44;;;0.53;63.95
78839;BME280;68405;47.190;27.558;2023-12-28T03:14:03;100836.39;;;0.47;64.49
78839;BME280;68405;47.190;27.558;2023-12-28T03:16:34;100825.70;;;0.43;64.10
78839;BME280;68405;47.190;27.558;2023-12-28T03:19:06;100821.88;;;0.41;64.11
78839;BME280;68405;47.190;27.558;2023-12-28T03:21:41;100812.59;;;0.38;64.09
78839;BME280;68405;47.190;27.558;2023-12-28T03:24:13;100807.79;;;0.37;64.17
78839;BME280;68405;47.190;27.558;2023-12-28T03:26:45;100787.61;;;0.44;64.18
78839;BME280;68405;47.190;27.558;2023-12-28T03:29:16;100776.38;;;0.54;64.75
78839;BME280;68405;47.190;27.558;2023-12-28T03:31:48;100761.23;;;0.67;64.81
78839;BME280;68405;47.190;27.558;2023-12-28T03:34:19;100750.78;;;0.74;64.80
78839;BME280;68405;47.190;27.558;2023-12-28T03:36:52;100744.58;;;0.80;64.72
78839;BME280;68405;47.190;27.558;2023-12-28T03:39:23;100746.90;;;0.86;64.65
78839;BME280;68405;47.190;27.558;2023-12-28T03:41:55;100749.73;;;0.90;64.81
78839;BME280;68405;47.190;27.558;2023-12-28T03:44:26;100759.23;;;0.95;64.60
78839;BME280;68405;47.190;27.558;2023-12-28T03:46:58;100759.61;;;0.99;64.92
78839;BME280;68405;47.190;27.558;2023-12-28T03:49:30;100768.07;;;1.02;64.65
78839;BME280;68405;47.190;27.558;2023-12-28T03:52:01;100774.90;;;1.01;64.29
78839;BME280;68405;47.190;27.558;2023-12-28T03:54:33;100789.17;;;0.97;65.01
78839;BME280;68405;47.190;27.558;2023-12-28T03:57:05;100800.73;;;0.83;67.72
78839;BME280;68405;47.190;27.558;2023-12-28T03:59:37;100804.12;;;0.74;66.17
78839;BME280;68405;47.190;27.558;2023-12-28T04:02:09;100785.00;;;0.67;65.42
78839;BME280;68405;47.190;27.558;2023-12-28T04:04:41;100768.99;;;0.61;65.45
78839;BME280;68405;47.190;27.558;2023-12-28T04:07:13;100762.63;;;0.59;65.42
78839;BME280;68405;47.190;27.558;2023-12-28T04:09:46;100762.31;;;0.60;64.96
78839;BME280;68405;47.190;27.558;2023-12-28T04:12:18;100756.52;;;0.61;65.21
78839;BME280;68405;47.190;27.558;2023-12-28T04:14:50;100751.70;;;0.60;65.37
78839;BME280;68405;47.190;27.558;2023-12-28T04:17:21;100750.16;;;0.60;65.34
78839;BME280;68405;47.190;27.558;2023-12-28T04:19:53;100758.38;;;0.60;64.70
78839;BME280;68405;47.190;27.558;2023-12-28T04:22:25;100744.70;;;0.60;65.06
78839;BME280;68405;47.190;27.558;2023-12-28T04:24:56;100745.77;;;0.63;65.04
78839;BME280;68405;47.190;27.558;2023-12-28T04:27:28;100766.50;;;0.65;65.35
78839;BME280;68405;47.190;27.558;2023-12-28T04:29:59;100770.88;;;0.70;65.40
78839;BME280;68405;47.190;27.558;2023-12-28T04:32:31;100778.23;;;0.78;65.83
78839;BME280;68405;47.190;27.558;2023-12-28T04:35:03;100776.85;;;0.87;66.38
78839;BME280;68405;47.190;27.558;2023-12-28T04:37:35;100762.13;;;0.95;66.46
78839;BME280;68405;47.190;27.558;2023-12-28T04:40:08;100744.44;;;1.00;66.18
78839;BME280;68405;47.190;27.558;2023-12-28T04:42:40;100737.00;;;1.06;66.38
78839;BME280;68405;47.190;27.558;2023-12-28T04:45:11;100724.00;;;1.15;66.72
78839;BME280;68405;47.190;27.558;2023-12-28T04:47:43;100733.70;;;1.32;67.75
78839;BME280;68405;47.190;27.558;2023-12-28T04:50:15;100730.85;;;1.45;67.72
78839;BME280;68405;47.190;27.558;2023-12-28T04:52:46;100726.70;;;1.53;67.43
78839;BME280;68405;47.190;27.558;2023-12-28T04:55:18;100725.05;;;1.58;67.33
78839;BME280;68405;47.190;27.558;2023-12-28T04:57:50;100717.05;;;1.60;67.62
78839;BME280;68405;47.190;27.558;2023-12-28T05:00:22;100707.33;;;1.63;67.60
78839;BME280;68405;47.190;27.558;2023-12-28T05:02:53;100705.28;;;1.64;67.59
78839;BME280;68405;47.190;27.558;2023-12-28T05:05:25;100704.96;;;1.66;67.95
78839;BME280;68405;47.190;27.558;2023-12-28T05:07:57;100703.91;;;1.74;67.83
78839;BME280;68405;47.190;27.558;2023-12-28T05:10:31;100700.70;;;1.78;67.77
78839;BME280;68405;47.190;27.558;2023-12-28T05:13:02;100702.77;;;1.78;67.68
78839;BME280;68405;47.190;27.558;2023-12-28T05:15:34;100709.26;;;1.77;67.48
78839;BME280;68405;47.190;27.558;2023-12-28T05:18:06;100707.02;;;1.76;67.49
78839;BME280;68405;47.190;27.558;2023-12-28T05:20:38;100705.13;;;1.76;67.40
78839;BME280;68405;47.190;27.558;2023-12-28T05:23:11;100709.11;;;1.79;67.46
78839;BME280;68405;47.190;27.558;2023-12-28T05:25:42;100704.21;;;1.83;67.65
78839;BME280;68405;47.190;27.558;2023-12-28T05:28:13;100709.42;;;1.88;67.59
78839;BME280;68405;47.190;27.558;2023-12-28T05:30:45;100703.45;;;1.91;67.33
78839;BME280;68405;47.190;27.558;2023-12-28T05:33:16;100705.73;;;1.93;67.29
78839;BME280;68405;47.190;27.558;2023-12-28T05:35:48;100689.13;;;1.95;67.39
78839;BME280;68405;47.190;27.558;2023-12-28T05:38:20;100697.39;;;1.98;67.21
78839;BME280;68405;47.190;27.558;2023-12-28T05:40:51;100694.06;;;2.06;66.92
78839;BME280;68405;47.190;27.558;2023-12-28T05:43:23;100693.29;;;2.12;66.89
78839;BME280;68405;47.190;27.558;2023-12-28T05:45:55;100690.95;;;2.17;66.78
78839;BME280;68405;47.190;27.558;2023-12-28T05:48:26;100689.80;;;2.20;66.65
78839;BME280;68405;47.190;27.558;2023-12-28T05:50:59;100691.67;;;2.20;66.49
78839;BME280;68405;47.190;27.558;2023-12-28T05:53:31;100692.37;;;2.20;66.50
78839;BME280;68405;47.190;27.558;2023-12-28T05:56:08;100699.92;;;2.21;66.42
78839;BME280;68405;47.190;27.558;2023-12-28T05:58:39;100690.89;;;2.25;66.44
78839;BME280;68405;47.190;27.558;2023-12-28T06:01:12;100686.13;;;2.29;66.29
78839;BME280;68405;47.190;27.558;2023-12-28T06:03:43;100683.64;;;2.35;66.21
78839;BME280;68405;47.190;27.558;2023-12-28T06:06:15;100682.70;;;2.42;65.93
78839;BME280;68405;47.190;27.558;2023-12-28T06:08:49;100691.67;;;2.48;65.91
78839;BME280;68405;47.190;27.558;2023-12-28T06:11:21;100684.40;;;2.56;65.61
78839;BME280;68405;47.190;27.558;2023-12-28T06:13:52;100686.38;;;2.65;65.43
78839;BME280;68405;47.190;27.558;2023-12-28T06:16:24;100696.65;;;2.78;65.24
78839;BME280;68405;47.190;27.558;2023-12-28T06:18:56;100693.13;;;2.87;64.92
78839;BME280;68405;47.190;27.558;2023-12-28T06:21:28;100681.52;;;2.93;64.72
78839;BME280;68405;47.190;27.558;2023-12-28T06:24:00;100678.69;;;3.01;64.63
78839;BME280;68405;47.190;27.558;2023-12-28T06:26:32;100681.52;;;3.10;64.42
78839;BME280;68405;47.190;27.558;2023-12-28T06:29:04;100676.96;;;3.20;64.03
78839;BME280;68405;47.190;27.558;2023-12-28T06:31:35;100671.83;;;3.43;63.88
78839;BME280;68405;47.190;27.558;2023-12-28T06:34:07;100672.73;;;4.08;63.23
78839;BME280;68405;47.190;27.558;2023-12-28T06:36:39;100665.60;;;5.15;62.78
78839;BME280;68405;47.190;27.558;2023-12-28T06:39:11;100662.33;;;6.60;60.84
78839;BME280;68405;47.190;27.558;2023-12-28T06:41:43;100652.30;;;8.46;59.72
78839;BME280;68405;47.190;27.558;2023-12-28T06:44:15;100650.81;;;10.36;60.21
78839;BME280;68405;47.190;27.558;2023-12-28T06:46:47;100648.31;;;11.79;58.26
78839;BME280;68405;47.190;27.558;2023-12-28T06:49:19;100640.86;;;12.81;58.36
78839;BME280;68405;47.190;27.558;2023-12-28T06:51:50;100634.73;;;13.77;55.41
78839;BME280;68405;47.190;27.558;2023-12-28T06:54:22;100629.80;;;14.25;54.25
78839;BME280;68405;47.190;27.558;2023-12-28T06:56:54;100637.00;;;14.48;54.22
78839;BME280;68405;47.190;27.558;2023-12-28T06:59:25;100636.49;;;14.29;53.82
78839;BME280;68405;47.190;27.558;2023-12-28T07:01:57;100631.79;;;13.85;51.68
78839;BME280;68405;47.190;27.558;2023-12-28T07:04:30;100632.33;;;13.44;51.92
78839;BME280;68405;47.190;27.558;2023-12-28T07:07:03;100635.44;;;12.75;52.41
78839;BME280;68405;47.190;27.558;2023-12-28T07:09:34;100632.68;;;12.15;50.98
78839;BME280;68405;47.190;27.558;2023-12-28T07:12:08;100638.27;;;11.64;48.39
78839;BME280;68405;47.190;27.558;2023-12-28T07:14:39;100637.11;;;11.06;40.74
78839;BME280;68405;47.190;27.558;2023-12-28T07:17:11;100639.31;;;10.31;43.17
78839;BME280;68405;47.190;27.558;2023-12-28T07:19:47;100641.10;;;9.27;43.34
78839;BME280;68405;47.190;27.558;2023-12-28T07:22:18;100644.08;;;8.41;45.33
78839;BME280;68405;47.190;27.558;2023-12-28T07:24:50;100644.15;;;8.07;45.29
78839;BME280;68405;47.190;27.558;2023-12-28T07:27:21;100650.82;;;7.67;47.07
78839;BME280;68405;47.190;27.558;2023-12-28T07:29:53;100655.28;;;8.83;48.53
78839;BME280;68405;47.190;27.558;2023-12-28T07:32:25;100658.58;;;9.87;45.34
78839;BME280;68405;47.190;27.558;2023-12-28T07:34:58;100659.83;;;10.94;47.38
78839;BME280;68405;47.190;27.558;2023-12-28T07:37:30;100659.48;;;11.51;47.40
78839;BME280;68405;47.190;27.558;2023-12-28T07:40:02;100652.27;;;11.94;46.41
78839;BME280;68405;47.190;27.558;2023-12-28T07:42:33;100650.22;;;12.30;45.68
78839;BME280;68405;47.190;27.558;2023-12-28T07:45:06;100644.14;;;12.98;43.61
78839;BME280;68405;47.190;27.558;2023-12-28T07:47:38;100642.70;;;14.58;42.16
78839;BME280;68405;47.190;27.558;2023-12-28T07:50:10;100642.14;;;15.95;41.89
78839;BME280;68405;47.190;27.558;2023-12-28T07:52:43;100651.67;;;17.25;42.97
78839;BME280;68405;47.190;27.558;2023-12-28T07:55:14;100661.56;;;18.37;39.65
78839;BME280;68405;47.190;27.558;2023-12-28T07:57:46;100662.64;;;19.03;40.06
78839;BME280;68405;47.190;27.558;2023-12-28T08:00:18;100656.29;;;19.50;41.52
78839;BME280;68405;47.190;27.558;2023-12-28T08:02:49;100650.43;;;19.83;39.22
78839;BME280;68405;47.190;27.558;2023-12-28T08:05:21;100655.07;;;19.70;36.50
78839;BME280;68405;47.190;27.558;2023-12-28T08:07:52;100659.17;;;19.12;32.37
78839;BME280;68405;47.190;27.558;2023-12-28T08:10:24;100659.80;;;19.10;37.12
78839;BME280;68405;47.190;27.558;2023-12-28T08:12:58;100655.92;;;18.85;36.95
78839;BME280;68405;47.190;27.558;2023-12-28T08:15:30;100658.42;;;18.87;36.45
78839;BME280;68405;47.190;27.558;2023-12-28T08:18:01;100666.17;;;18.62;35.88
78839;BME280;68405;47.190;27.558;2023-12-28T08:20:33;100662.48;;;18.56;35.00
78839;BME280;68405;47.190;27.558;2023-12-28T08:23:04;100662.38;;;18.96;35.55
78839;BME280;68405;47.190;27.558;2023-12-28T08:25:36;100663.79;;;19.20;33.74
78839;BME280;68405;47.190;27.558;2023-12-28T08:28:07;100659.59;;;19.17;34.62
78839;BME280;68405;47.190;27.558;2023-12-28T08:30:40;100652.25;;;19.49;34.71
78839;BME280;68405;47.190;27.558;2023-12-28T08:33:14;100645.70;;;19.47;33.38
78839;BME280;68405;47.190;27.558;2023-12-28T08:35:46;100650.73;;;19.63;33.45
78839;BME280;68405;47.190;27.558;2023-12-28T08:38:17;100644.67;;;20.64;33.10
78839;BME280;68405;47.190;27.558;2023-12-28T08:40:49;100638.94;;;21.62;29.50
78839;BME280;68405;47.190;27.558;2023-12-28T08:43:20;100629.00;;;22.78;29.81
78839;BME280;68405;47.190;27.558;2023-12-28T08:45:53;100627.69;;;24.10;30.10
78839;BME280;68405;47.190;27.558;2023-12-28T08:48:25;100619.90;;;24.74;27.76
78839;BME280;68405;47.190;27.558;2023-12-28T08:50:56;100611.35;;;25.06;28.37
78839;BME280;68405;47.190;27.558;2023-12-28T08:53:28;100609.63;;;24.60;29.22
78839;BME280;68405;47.190;27.558;2023-12-28T08:56:00;100594.91;;;23.84;29.22
78839;BME280;68405;47.190;27.558;2023-12-28T08:58:31;100598.34;;;23.31;29.12
78839;BME280;68405;47.190;27.558;2023-12-28T09:01:03;100595.73;;;23.04;26.57
78839;BME280;68405;47.190;27.558;2023-12-28T09:03:34;100592.77;;;22.84;27.62
78839;BME280;68405;47.190;27.558;2023-12-28T09:06:07;100591.11;;;22.97;27.58
78839;BME280;68405;47.190;27.558;2023-12-28T09:08:40;100591.42;;;23.00;27.16
78839;BME280;68405;47.190;27.558;2023-12-28T09:11:12;100588.05;;;22.79;26.44
78839;BME280;68405;47.190;27.558;2023-12-28T09:13:45;100587.09;;;22.14;27.24
78839;BME280;68405;47.190;27.558;2023-12-28T09:16:17;100587.88;;;21.51;26.90
78839;BME280;68405;47.190;27.558;2023-12-28T09:18:48;100588.07;;;20.74;27.75
78839;BME280;68405;47.190;27.558;2023-12-28T09:21:20;100585.02;;;20.09;26.98
78839;BME280;68405;47.190;27.558;2023-12-28T09:23:52;100583.73;;;19.34;27.02
78839;BME280;68405;47.190;27.558;2023-12-28T09:26:23;100587.67;;;18.87;27.58
78839;BME280;68405;47.190;27.558;2023-12-28T09:28:55;100578.88;;;18.81;28.08
78839;BME280;68405;47.190;27.558;2023-12-28T09:31:27;100572.56;;;18.78;27.40
78839;BME280;68405;47.190;27.558;2023-12-28T09:33:59;100569.98;;;18.55;27.63
78839;BME280;68405;47.190;27.558;2023-12-28T09:36:30;100564.54;;;17.97;28.24
78839;BME280;68405;47.190;27.558;2023-12-28T09:39:02;100550.92;;;17.79;29.03
78839;BME280;68405;47.190;27.558;2023-12-28T09:41:39;100534.89;;;17.60;28.81
78839;BME280;68405;47.190;27.558;2023-12-28T09:44:13;100529.63;;;17.19;29.03
78839;BME280;68405;47.190;27.558;2023-12-28T09:46:43;100536.39;;;17.58;29.11
78839;BME280;68405;47.190;27.558;2023-12-28T09:49:17;100533.16;;;18.02;29.04
78839;BME280;68405;47.190;27.558;2023-12-28T09:51:49;100534.66;;;19.12;28.61
78839;BME280;68405;47.190;27.558;2023-12-28T09:54:20;100534.91;;;20.23;27.66
78839;BME280;68405;47.190;27.558;2023-12-28T09:56:53;100526.78;;;20.66;26.67
78839;BME280;68405;47.190;27.558;2023-12-28T09:59:25;100524.43;;;21.05;26.87
78839;BME280;68405;47.190;27.558;2023-12-28T10:01:58;100522.17;;;22.03;26.67
78839;BME280;68405;47.190;27.558;2023-12-28T10:04:31;100522.38;;;22.66;25.75
78839;BME280;68405;47.190;27.558;2023-12-28T10:07:03;100522.14;;;22.55;25.74
78839;BME280;68405;47.190;27.558;2023-12-28T10:09:35;100524.16;;;21.90;26.18
78839;BME280;68405;47.190;27.558;2023-12-28T10:12:08;100523.45;;;20.87;26.57
78839;BME280;68405;47.190;27.558;2023-12-28T10:14:38;100524.91;;;20.11;27.35
78839;BME280;68405;47.190;27.558;2023-12-28T10:17:10;100514.93;;;19.64;27.86
78839;BME280;68405;47.190;27.558;2023-12-28T10:19:41;100518.27;;;19.36;27.69
78839;BME280;68405;47.190;27.558;2023-12-28T10:22:17;100520.25;;;19.06;27.10
78839;BME280;68405;47.190;27.558;2023-12-28T10:24:50;100520.73;;;18.92;28.13
78839;BME280;68405;47.190;27.558;2023-12-28T10:27:21;100520.05;;;18.82;27.66
78839;BME280;68405;47.190;27.558;2023-12-28T10:29:56;100515.63;;;18.70;28.17
78839;BME280;68405;47.190;27.558;2023-12-28T10:32:27;100515.90;;;18.53;27.83
78839;BME280;68405;47.190;27.558;2023-12-28T10:34:59;100509.48;;;18.67;28.12
78839;BME280;68405;47.190;27.558;2023-12-28T10:37:32;100512.39;;;19.83;27.69
78839;BME280;68405;47.190;27.558;2023-12-28T10:40:06;100505.91;;;20.54;27.12
78839;BME280;68405;47.190;27.558;2023-12-28T10:42:46;100496.98;;;20.53;26.52
78839;BME280;68405;47.190;27.558;2023-12-28T10:45:19;100490.98;;;21.42;27.24
78839;BME280;68405;47.190;27.558;2023-12-28T10:47:58;100484.78;;;22.09;25.74
78839;BME280;68405;47.190;27.558;2023-12-28T10:50:38;100477.96;;;22.61;25.39
78839;BME280;68405;47.190;27.558;2023-12-28T10:53:20;100474.43;;;23.03;25.44
78839;BME280;68405;47.190;27.558;2023-12-28T10:55:59;100473.09;;;23.50;24.76
78839;BME280;68405;47.190;27.558;2023-12-28T10:58:40;100466.38;;;23.86;24.34
78839;BME280;68405;47.190;27.558;2023-12-28T11:08:19;100449.36;;;24.50;24.56
78839;BME280;68405;47.190;27.558;2023-12-28T11:10:52;100450.49;;;24.54;23.57
78839;BME280;68405;47.190;27.558;2023-12-28T11:13:25;100446.39;;;24.48;22.65
78839;BME280;68405;47.190;27.558;2023-12-28T11:15:57;100431.14;;;24.28;22.38
78839;BME280;68405;47.190;27.558;2023-12-28T11:18:29;100422.24;;;24.15;22.78
78839;BME280;68405;47.190;27.558;2023-12-28T11:21:01;100412.79;;;24.27;22.21
78839;BME280;68405;47.190;27.558;2023-12-28T11:23:33;100408.50;;;24.52;23.23
78839;BME280;68405;47.190;27.558;2023-12-28T11:26:05;100400.90;;;25.00;23.37
78839;BME280;68405;47.190;27.558;2023-12-28T11:28:46;100394.16;;;24.82;22.55
78839;BME280;68405;47.190;27.558;2023-12-28T11:31:18;100391.69;;;24.37;22.36
78839;BME280;68405;47.190;27.558;2023-12-28T11:33:52;100384.67;;;23.93;22.40
78839;BME280;68405;47.190;27.558;2023-12-28T11:36:31;100378.13;;;23.84;22.53
78839;BME280;68405;47.190;27.558;2023-12-28T11:39:07;100375.63;;;23.56;22.95
78839;BME280;68405;47.190;27.558;2023-12-28T11:41:39;100374.33;;;23.28;22.37
78839;BME280;68405;47.190;27.558;2023-12-28T11:44:13;100376.33;;;22.91;23.20
78839;BME280;68405;47.190;27.558;2023-12-28T11:46:45;100381.01;;;22.81;23.33
78839;BME280;68405;47.190;27.558;2023-12-28T11:49:16;100370.84;;;22.66;23.02
78839;BME280;68405;47.190;27.558;2023-12-28T11:51:57;100371.61;;;22.51;23.59
78839;BME280;68405;47.190;27.558;2023-12-28T11:54:29;100365.60;;;22.53;23.18
78839;BME280;68405;47.190;27.558;2023-12-28T11:57:00;100366.42;;;22.26;23.38
78839;BME280;68405;47.190;27.558;2023-12-28T11:59:34;100361.21;;;21.82;23.29
78839;BME280;68405;47.190;27.558;2023-12-28T12:02:06;100357.50;;;21.62;23.93
78839;BME280;68405;47.190;27.558;2023-12-28T12:04:39;100352.40;;;21.22;23.68
78839;BME280;68405;47.190;27.558;2023-12-28T12:07:10;100346.20;;;21.18;24.24
78839;BME280;68405;47.190;27.558;2023-12-28T12:09:42;100340.78;;;20.74;24.25
78839;BME280;68405;47.190;27.558;2023-12-28T12:12:15;100341.70;;;20.47;24.61
78839;BME280;68405;47.190;27.558;2023-12-28T12:14:47;100342.09;;;20.05;24.97
78839;BME280;68405;47.190;27.558;2023-12-28T12:17:20;100336.15;;;19.32;25.40
78839;BME280;68405;47.190;27.558;2023-12-28T12:19:52;100335.45;;;19.14;25.73
78839;BME280;68405;47.190;27.558;2023-12-28T12:22:25;100334.55;;;18.94;25.90
78839;BME280;68405;47.190;27.558;2023-12-28T12:24:58;100327.22;;;18.55;26.21
78839;BME280;68405;47.190;27.558;2023-12-28T12:27:31;100324.86;;;17.81;26.58
78839;BME280;68405;47.190;27.558;2023-12-28T12:30:03;100318.02;;;16.91;27.57
78839;BME280;68405;47.190;27.558;2023-12-28T12:32:35;100325.36;;;15.99;27.66
78839;BME280;68405;47.190;27.558;2023-12-28T12:35:10;100312.34;;;15.35;28.06
78839;BME280;68405;47.190;27.558;2023-12-28T12:37:44;100314.05;;;14.94;28.61
78839;BME280;68405;47.190;27.558;2023-12-28T12:40:18;100310.23;;;14.74;28.74
78839;BME280;68405;47.190;27.558;2023-12-28T12:42:57;100309.91;;;14.74;29.15
78839;BME280;68405;47.190;27.558;2023-12-28T12:45:29;100297.54;;;14.60;29.66
78839;BME280;68405;47.190;27.558;2023-12-28T12:48:01;100292.49;;;14.32;29.76
78839;BME280;68405;47.190;27.558;2023-12-28T12:50:34;100289.02;;;14.11;30.69
78839;BME280;68405;47.190;27.558;2023-12-28T12:53:07;100291.90;;;14.00;30.57
78839;BME280;68405;47.190;27.558;2023-12-28T12:55:39;100291.39;;;13.91;30.58
78839;BME280;68405;47.190;27.558;2023-12-28T12:58:12;100293.70;;;13.82;31.55
78839;BME280;68405;47.190;27.558;2023-12-28T13:00:47;100296.42;;;13.63;31.56
78839;BME280;68405;47.190;27.558;2023-12-28T13:03:21;100290.79;;;13.55;31.48
78839;BME280;68405;47.190;27.558;2023-12-28T13:05:54;100292.29;;;13.48;31.61
78839;BME280;68405;47.190;27.558;2023-12-28T13:08:26;100287.85;;;13.32;33.17
78839;BME280;68405;47.190;27.558;2023-12-28T13:10:57;100280.92;;;13.21;32.09
78839;BME280;68405;47.190;27.558;2023-12-28T13:13:29;100278.36;;;12.96;34.37
78839;BME280;68405;47.190;27.558;2023-12-28T13:16:00;100275.27;;;12.67;33.15
78839;BME280;68405;47.190;27.558;2023-12-28T13:18:32;100272.48;;;12.38;34.19